Time;durP1;ratioP1;P1;durP2;ratioP2;P2;SDS_P1;SDS_P2;PMS_P1;PMS_P2;Temp;Humidity;BMP_temperature;BMP_pressure;BME280_temperature;BME280_humidity;BME280_pressure;Samples;Min_cycle;Max_cycle;Signal;HPM_P1;HPM_P2
2021/12/26 00:00:16;;;;;;;5.55;3.13;;;-6.70;99.90;;;;;;5092480;28;20063;-66
2021/12/26 00:02:42;;;;;;;5.75;3.30;;;-6.60;99.90;;;;;;5093476;28;20120;-66
2021/12/26 00:05:08;;;;;;;6.43;3.10;;;-6.60;99.90;;;;;;5093020;28;20437;-66
2021/12/26 00:07:35;;;;;;;7.25;3.58;;;-6.70;99.90;;;;;;5093217;28;20051;-68
2021/12/26 00:10:01;;;;;;;5.90;2.83;;;-6.60;99.90;;;;;;5102325;27;20046;-67
2021/12/26 00:12:27;;;;;;;5.63;4.13;;;-6.60;99.90;;;;;;5083814;28;20756;-66
2021/12/26 00:14:53;;;;;;;4.68;2.70;;;-6.60;99.90;;;;;;5089489;28;20051;-66
2021/12/26 00:17:18;;;;;;;4.97;2.47;;;-6.60;99.90;;;;;;5091007;28;20477;-66
2021/12/26 00:19:44;;;;;;;6.78;2.97;;;-6.60;99.90;;;;;;5100480;28;20066;-66
2021/12/26 00:22:09;;;;;;;5.13;3.40;;;-6.60;99.90;;;;;;5093877;28;20059;-66
2021/12/26 00:24:35;;;;;;;5.80;2.75;;;-6.70;99.90;;;;;;5088310;28;20043;-66
2021/12/26 00:27:01;;;;;;;3.95;2.60;;;-6.70;99.90;;;;;;5080168;28;20045;-66
2021/12/26 00:29:27;;;;;;;4.43;2.53;;;-6.70;99.90;;;;;;5088433;28;20060;-66
2021/12/26 00:31:52;;;;;;;4.40;2.40;;;-6.70;99.90;;;;;;5071656;28;20076;-65
2021/12/26 00:34:18;;;;;;;5.13;2.80;;;-6.70;99.90;;;;;;5071257;28;20131;-66
2021/12/26 00:36:44;;;;;;;4.50;2.92;;;-6.70;99.90;;;;;;5072572;28;20131;-66
2021/12/26 00:39:10;;;;;;;5.78;2.85;;;-6.70;99.90;;;;;;5070407;28;20055;-66
2021/12/26 00:41:39;;;;;;;8.43;3.65;;;-6.70;99.90;;;;;;5072267;28;20418;-66
2021/12/26 00:44:05;;;;;;;5.65;3.03;;;-6.70;99.90;;;;;;5071921;28;20414;-66
2021/12/26 00:46:31;;;;;;;4.03;2.50;;;-6.70;99.90;;;;;;5070391;28;20045;-66
2021/12/26 00:48:57;;;;;;;5.63;2.72;;;-6.70;99.90;;;;;;5076956;28;20536;-66
2021/12/26 00:51:22;;;;;;;3.70;2.38;;;-6.70;99.90;;;;;;5078871;28;20056;-66
2021/12/26 00:53:48;;;;;;;9.73;2.38;;;-6.70;99.90;;;;;;5071096;28;20195;-66
2021/12/26 00:56:15;;;;;;;3.33;2.08;;;-6.70;99.90;;;;;;5071997;28;20044;-66
2021/12/26 00:58:40;;;;;;;3.25;2.50;;;-6.70;99.90;;;;;;5070416;28;20090;-66
2021/12/26 01:01:06;;;;;;;4.55;2.22;;;-6.70;99.90;;;;;;5070841;28;20719;-66
2021/12/26 01:03:32;;;;;;;5.03;2.30;;;-6.70;99.90;;;;;;5070187;28;20045;-66
2021/12/26 01:05:59;;;;;;;5.60;3.22;;;-6.70;99.90;;;;;;5070173;28;20101;-66
2021/12/26 01:08:29;;;;;;;4.95;2.35;;;-6.70;99.90;;;;;;5070937;28;20044;-66
2021/12/26 01:11:02;;;;;;;3.63;1.88;;;-6.70;99.90;;;;;;5070232;28;20123;-66
2021/12/26 01:13:32;;;;;;;3.92;2.47;;;-6.70;99.90;;;;;;5072072;28;20048;-66
2021/12/26 01:16:00;;;;;;;4.55;1.92;;;-6.70;99.90;;;;;;5071473;28;20054;-66
2021/12/26 01:18:29;;;;;;;8.15;2.10;;;-6.60;99.90;;;;;;5071818;28;20052;-66
2021/12/26 01:21:09;;;;;;;4.95;2.22;;;-6.60;99.90;;;;;;5071620;28;20044;-66
2021/12/26 01:23:35;;;;;;;5.88;1.80;;;-6.60;99.90;;;;;;5071579;28;20047;-66
2021/12/26 01:26:00;;;;;;;3.92;1.70;;;-6.60;99.90;;;;;;5070277;28;20052;-66
2021/12/26 01:28:28;;;;;;;2.83;1.60;;;-6.60;99.90;;;;;;5071148;28;20043;-66
2021/12/26 01:30:58;;;;;;;4.68;1.90;;;-6.60;99.90;;;;;;5070172;28;20078;-66
2021/12/26 01:33:25;;;;;;;3.83;2.53;;;-6.60;99.90;;;;;;5070357;28;20055;-66
2021/12/26 01:35:50;;;;;;;4.68;2.22;;;-6.70;99.90;;;;;;5070563;28;20056;-66
2021/12/26 01:38:16;;;;;;;4.53;2.08;;;-6.70;99.90;;;;;;5070141;28;20127;-66
2021/12/26 01:40:47;;;;;;;3.33;2.10;;;-6.70;99.90;;;;;;5069826;28;20415;-66
2021/12/26 01:43:14;;;;;;;3.90;1.70;;;-6.70;99.90;;;;;;5069387;28;20551;-66
2021/12/26 01:45:41;;;;;;;5.82;1.80;;;-6.70;99.90;;;;;;5069472;28;20044;-66
2021/12/26 01:48:07;;;;;;;3.80;2.70;;;-6.80;99.90;;;;;;5071243;28;20045;-66
2021/12/26 01:50:34;;;;;;;3.80;2.00;;;-6.80;99.90;;;;;;5070094;28;20048;-66
2021/12/26 01:53:00;;;;;;;3.15;1.42;;;-6.90;99.90;;;;;;5069866;28;20469;-66
2021/12/26 01:55:40;;;;;;;4.55;3.05;;;-6.90;99.90;;;;;;5070209;28;20084;-66
2021/12/26 01:58:14;;;;;;;4.72;2.45;;;-6.90;99.90;;;;;;5070660;28;20041;-66
2021/12/26 02:00:43;;;;;;;2.38;1.83;;;-6.90;99.90;;;;;;5070934;28;20048;-66
2021/12/26 02:03:08;;;;;;;4.57;1.73;;;-7.00;99.90;;;;;;5069055;28;20244;-66
2021/12/26 02:05:34;;;;;;;6.80;2.15;;;-7.00;99.90;;;;;;5070726;28;20040;-66
2021/12/26 02:08:00;;;;;;;2.97;1.75;;;-7.10;99.90;;;;;;5068815;28;20052;-66
2021/12/26 02:10:26;;;;;;;2.47;1.60;;;-7.10;99.90;;;;;;5070399;28;20048;-66
2021/12/26 02:12:52;;;;;;;2.75;2.05;;;-7.10;99.90;;;;;;5069736;28;20050;-66
2021/12/26 02:15:17;;;;;;;3.38;2.20;;;-7.10;99.90;;;;;;5078368;28;20064;-66
2021/12/26 02:17:43;;;;;;;3.65;2.13;;;-7.10;99.90;;;;;;5110249;28;20494;-66
2021/12/26 02:20:23;;;;;;;4.53;2.75;;;-7.10;99.90;;;;;;5100014;28;20048;-66
2021/12/26 02:22:55;;;;;;;2.50;1.52;;;-7.10;99.90;;;;;;5081436;28;20492;-66
2021/12/26 02:27:31;;;;;;;3.20;1.63;;;-7.10;99.90;;;;;;5097197;28;20079;-66
2021/12/26 02:28:18;;;;;;;4.25;2.35;;;-7.10;99.90;;;;;;5105056;28;20060;-66
2021/12/26 02:30:44;;;;;;;3.90;2.28;;;-7.10;99.90;;;;;;5090589;28;20039;-68
2021/12/26 02:33:12;;;;;;;4.88;1.60;;;-7.00;99.90;;;;;;5090128;28;20406;-66
2021/12/26 02:35:39;;;;;;;3.05;1.80;;;-7.00;99.90;;;;;;5105805;28;20146;-66
2021/12/26 02:38:06;;;;;;;3.10;1.95;;;-7.10;99.90;;;;;;5110013;28;20050;-66
2021/12/26 02:40:32;;;;;;;3.35;1.65;;;-7.00;99.90;;;;;;5108818;28;20058;-67
2021/12/26 02:42:58;;;;;;;5.00;1.92;;;-7.00;99.90;;;;;;5111166;28;20134;-66
2021/12/26 02:45:24;;;;;;;2.22;1.52;;;-7.00;99.90;;;;;;5109261;28;20130;-66
2021/12/26 02:47:51;;;;;;;2.67;1.63;;;-7.00;99.90;;;;;;5109848;28;20103;-66
2021/12/26 02:50:23;;;;;;;3.78;1.58;;;-7.00;99.90;;;;;;5111123;28;20044;-66
2021/12/26 02:52:50;;;;;;;3.90;1.38;;;-6.30;99.90;;;;;;5108626;28;20497;-66
2021/12/26 02:55:17;;;;;;;3.10;1.27;;;-6.90;99.90;;;;;;5109941;28;20363;-66
2021/12/26 02:57:52;;;;;;;6.70;1.40;;;-6.90;99.90;;;;;;5109346;28;20130;-66
2021/12/26 03:00:20;;;;;;;4.38;1.63;;;-6.90;99.90;;;;;;5110342;28;20047;-66
2021/12/26 03:02:50;;;;;;;1.92;1.02;;;-6.90;99.90;;;;;;5110805;28;20046;-66
2021/12/26 03:05:17;;;;;;;4.78;2.00;;;-6.90;99.90;;;;;;5109770;28;20464;-66
2021/12/26 03:07:45;;;;;;;1.67;1.48;;;-6.90;99.90;;;;;;5113115;28;20142;-66
2021/12/26 03:10:20;;;;;;;3.08;1.63;;;-6.80;99.90;;;;;;5113939;28;20043;-66
2021/12/26 03:12:47;;;;;;;3.50;1.38;;;-6.80;99.90;;;;;;5114828;28;20039;-66
2021/12/26 03:15:12;;;;;;;2.38;1.33;;;-6.80;99.90;;;;;;5113042;28;20054;-66
2021/12/26 03:17:40;;;;;;;2.75;1.20;;;-6.80;99.90;;;;;;5113127;28;20417;-66
2021/12/26 03:20:08;;;;;;;2.05;1.65;;;-6.90;99.90;;;;;;5113794;28;20446;-66
2021/12/26 03:22:34;;;;;;;2.63;2.30;;;-6.90;99.90;;;;;;5112479;28;20047;-66
2021/12/26 03:25:00;;;;;;;2.88;1.75;;;-6.90;99.90;;;;;;5113233;28;20394;-66
2021/12/26 03:27:25;;;;;;;2.55;1.05;;;-6.90;99.90;;;;;;5114815;28;20114;-66
2021/12/26 03:29:51;;;;;;;2.58;1.25;;;-6.80;99.90;;;;;;5113606;28;20505;-66
2021/12/26 03:32:16;;;;;;;2.42;1.67;;;-6.80;99.90;;;;;;5114409;28;20421;-66
2021/12/26 03:34:49;;;;;;;5.30;1.75;;;-6.80;99.90;;;;;;5113640;28;20055;-66
2021/12/26 03:37:16;;;;;;;6.35;1.80;;;-6.80;99.90;;;;;;5114330;28;20066;-66
2021/12/26 03:39:42;;;;;;;3.25;1.55;;;-6.80;99.90;;;;;;5112753;28;20051;-66
2021/12/26 03:42:09;;;;;;;4.35;1.75;;;-6.80;99.90;;;;;;5113828;28;20051;-66
2021/12/26 03:44:34;;;;;;;2.40;1.42;;;-6.80;99.90;;;;;;5112649;28;20050;-66
2021/12/26 03:47:00;;;;;;;3.15;1.20;;;-6.80;99.90;;;;;;5114316;28;20126;-66
2021/12/26 03:49:26;;;;;;;3.70;1.85;;;-6.80;99.90;;;;;;5113532;28;20485;-66
2021/12/26 03:51:52;;;;;;;2.17;1.30;;;-6.80;99.90;;;;;;5112601;28;20048;-66
2021/12/26 03:54:18;;;;;;;2.60;1.85;;;-6.80;99.90;;;;;;5114161;28;20130;-66
2021/12/26 03:56:44;;;;;;;2.97;1.13;;;-6.80;99.90;;;;;;5113032;28;20044;-66
2021/12/26 03:59:10;;;;;;;2.80;1.38;;;-6.70;99.90;;;;;;5113047;28;20039;-66
2021/12/26 04:01:36;;;;;;;3.40;2.42;;;-6.80;99.90;;;;;;5113865;28;20039;-66
2021/12/26 04:04:01;;;;;;;4.03;1.55;;;-6.70;99.90;;;;;;5113354;28;20411;-66
2021/12/26 04:06:27;;;;;;;3.60;1.20;;;-6.70;99.90;;;;;;5112422;28;20082;-66
2021/12/26 04:08:53;;;;;;;2.35;1.52;;;-6.70;99.90;;;;;;5112440;28;20653;-66
2021/12/26 04:11:18;;;;;;;1.80;1.00;;;-6.70;99.90;;;;;;5112042;28;20493;-66
2021/12/26 04:13:44;;;;;;;2.53;1.50;;;-6.70;99.90;;;;;;5113668;27;20065;-66
2021/12/26 04:16:10;;;;;;;3.10;1.63;;;-6.60;99.90;;;;;;5113763;28;20096;-66
2021/12/26 04:18:35;;;;;;;2.58;1.45;;;-6.60;99.90;;;;;;5111575;28;20449;-66
2021/12/26 04:21:02;;;;;;;3.63;1.40;;;-6.60;99.90;;;;;;5113661;28;20051;-66
2021/12/26 04:23:28;;;;;;;2.20;1.13;;;-6.60;99.90;;;;;;5113535;28;20047;-66
2021/12/26 04:25:54;;;;;;;4.68;1.25;;;-6.60;99.90;;;;;;5111516;28;20047;-66
2021/12/26 04:28:20;;;;;;;1.67;1.20;;;-6.60;99.90;;;;;;5113653;28;20040;-66
2021/12/26 04:30:46;;;;;;;5.25;1.67;;;-6.60;99.90;;;;;;5112191;28;20055;-66
2021/12/26 04:33:12;;;;;;;1.75;1.20;;;-6.60;99.90;;;;;;5112822;28;20044;-66
2021/12/26 04:35:38;;;;;;;1.80;1.25;;;-6.70;99.90;;;;;;5112926;28;20073;-66
2021/12/26 04:38:04;;;;;;;1.77;1.40;;;-6.70;99.90;;;;;;5111544;28;20389;-66
2021/12/26 04:40:30;;;;;;;2.78;1.13;;;-6.70;99.90;;;;;;5111961;28;20130;-66
2021/12/26 04:42:56;;;;;;;1.88;1.10;;;-6.70;99.90;;;;;;5113177;28;20513;-66
2021/12/26 04:45:22;;;;;;;2.53;1.45;;;-6.80;99.90;;;;;;5110887;28;20051;-66
2021/12/26 04:47:50;;;;;;;3.55;1.92;;;-6.80;99.90;;;;;;5111914;28;20486;-66
2021/12/26 04:50:19;;;;;;;1.98;1.17;;;-6.80;99.90;;;;;;5112105;28;20489;-66
2021/12/26 04:52:45;;;;;;;1.83;1.42;;;-6.90;99.90;;;;;;5110172;28;20059;-66
2021/12/26 04:55:14;;;;;;;1.42;1.00;;;-6.90;99.90;;;;;;5111182;28;20050;-66
2021/12/26 04:57:39;;;;;;;1.60;1.40;;;-6.90;99.90;;;;;;5111593;28;20623;-66
2021/12/26 05:00:07;;;;;;;1.88;1.17;;;-6.90;99.90;;;;;;5111247;28;20052;-66
2021/12/26 05:02:35;;;;;;;2.35;1.42;;;-6.90;99.90;;;;;;5112614;28;20062;-66
2021/12/26 05:05:03;;;;;;;2.15;1.40;;;-6.90;99.90;;;;;;5111826;28;20066;-66
2021/12/26 05:07:29;;;;;;;3.42;1.60;;;-6.90;99.90;;;;;;5112024;28;20058;-66
2021/12/26 05:09:54;;;;;;;5.10;2.30;;;-7.00;99.90;;;;;;5112662;28;20043;-66
2021/12/26 05:12:20;;;;;;;1.75;1.25;;;-6.90;99.90;;;;;;5111628;28;20084;-66
2021/12/26 05:14:45;;;;;;;3.25;1.40;;;-6.90;99.90;;;;;;5111568;28;20047;-66
2021/12/26 05:17:11;;;;;;;2.38;1.38;;;-6.90;99.90;;;;;;5112320;28;20035;-66
2021/12/26 05:19:36;;;;;;;2.22;1.88;;;-6.90;99.90;;;;;;5110868;28;20048;-66
2021/12/26 05:22:02;;;;;;;4.28;1.55;;;-6.90;99.90;;;;;;5105300;28;20459;-66
2021/12/26 05:24:28;;;;;;;2.85;1.50;;;-6.90;99.90;;;;;;5086683;28;20120;-66
2021/12/26 05:26:53;;;;;;;1.58;1.20;;;-5.80;99.90;;;;;;5110780;28;20383;-66
2021/12/26 05:29:19;;;;;;;1.90;1.17;;;-6.90;99.90;;;;;;5096554;28;20048;-66
2021/12/26 05:31:45;;;;;;;2.90;1.40;;;-6.90;99.90;;;;;;5090129;28;20084;-66
2021/12/26 05:34:10;;;;;;;2.08;1.48;;;-6.90;99.90;;;;;;5091085;28;20044;-66
2021/12/26 05:36:36;;;;;;;2.05;1.30;;;-6.90;99.90;;;;;;5112004;28;20052;-66
2021/12/26 05:39:02;;;;;;;1.30;1.20;;;-6.90;99.90;;;;;;5112247;28;20051;-66
2021/12/26 05:41:27;;;;;;;3.72;1.70;;;-6.90;99.90;;;;;;5100854;28;20572;-66
2021/12/26 05:43:53;;;;;;;1.25;1.15;;;-6.90;99.90;;;;;;5106475;28;20047;-66
2021/12/26 05:46:19;;;;;;;1.40;1.20;;;-6.90;99.90;;;;;;5100289;28;20406;-66
2021/12/26 05:48:44;;;;;;;2.00;0.93;;;-6.90;99.90;;;;;;5100495;28;20040;-66
2021/12/26 05:51:10;;;;;;;3.05;1.13;;;-7.00;99.90;;;;;;5106942;28;20040;-66
2021/12/26 05:53:35;;;;;;;3.17;1.50;;;-7.00;99.90;;;;;;5103351;28;20047;-66
2021/12/26 05:56:01;;;;;;;3.13;0.95;;;-7.00;99.90;;;;;;5109799;28;20163;-67
2021/12/26 05:58:27;;;;;;;2.38;1.23;;;-7.00;99.90;;;;;;5100122;28;20051;-66
2021/12/26 06:00:52;;;;;;;1.30;1.20;;;-7.00;99.90;;;;;;5080228;28;20112;-67
2021/12/26 06:03:18;;;;;;;3.97;1.52;;;-7.00;99.90;;;;;;5100054;28;20047;-66
2021/12/26 06:05:43;;;;;;;4.38;2.03;;;-7.00;99.90;;;;;;5109490;28;20043;-66
2021/12/26 06:08:09;;;;;;;1.38;1.00;;;-7.00;99.90;;;;;;5091453;28;20048;-66
2021/12/26 06:10:35;;;;;;;4.15;1.65;;;-7.10;99.90;;;;;;5090656;28;20047;-66
2021/12/26 06:13:01;;;;;;;3.40;1.63;;;-7.00;99.90;;;;;;5091489;28;20052;-67
2021/12/26 06:15:26;;;;;;;3.20;1.38;;;-7.00;99.90;;;;;;5110061;28;20043;-66
2021/12/26 06:17:52;;;;;;;2.65;1.90;;;-7.00;99.90;;;;;;5109080;28;20054;-66
2021/12/26 06:20:17;;;;;;;2.75;1.65;;;-7.00;99.90;;;;;;5110439;28;20059;-66
2021/12/26 06:22:45;;;;;;;4.72;2.22;;;-7.00;99.90;;;;;;5111209;28;20065;-66
2021/12/26 06:25:12;;;;;;;2.67;2.00;;;-7.00;99.90;;;;;;5107250;28;20043;-66
2021/12/26 06:27:38;;;;;;;4.80;1.58;;;-7.00;99.90;;;;;;5096584;28;20047;-67
2021/12/26 06:30:09;;;;;;;2.83;1.95;;;-7.00;99.90;;;;;;5095909;28;20097;-66
2021/12/26 06:32:34;;;;;;;2.30;1.45;;;-6.90;99.90;;;;;;5090251;28;20101;-66
2021/12/26 06:35:01;;;;;;;4.90;1.65;;;-6.90;99.90;;;;;;5097905;28;20490;-66
2021/12/26 06:37:28;;;;;;;3.35;1.40;;;-6.90;99.90;;;;;;5108219;28;20086;-66
2021/12/26 06:39:54;;;;;;;1.95;1.45;;;-6.90;99.90;;;;;;5111276;28;20120;-66
2021/12/26 06:42:19;;;;;;;2.95;1.92;;;-7.00;99.90;;;;;;5114467;27;20044;-66
2021/12/26 06:44:45;;;;;;;2.13;1.80;;;-6.90;99.90;;;;;;5089773;28;20043;-66
2021/12/26 06:47:11;;;;;;;6.03;1.80;;;-6.90;99.90;;;;;;5089530;28;20044;-66
2021/12/26 06:49:37;;;;;;;2.47;1.20;;;-6.90;99.90;;;;;;5093445;28;20096;-66
2021/12/26 06:52:04;;;;;;;2.58;1.45;;;-6.90;99.90;;;;;;5098864;28;20134;-66
2021/12/26 06:54:30;;;;;;;5.55;1.95;;;-6.90;99.90;;;;;;5102571;28;20040;-66
2021/12/26 06:56:55;;;;;;;8.10;3.45;;;-6.90;99.90;;;;;;5092602;28;20561;-66
2021/12/26 06:59:21;;;;;;;25.42;6.90;;;-6.90;99.90;;;;;;5097395;28;20105;-66
2021/12/26 07:01:47;;;;;;;20.10;6.43;;;-6.90;99.90;;;;;;5107616;28;20048;-66
2021/12/26 07:04:13;;;;;;;12.45;4.07;;;-6.90;99.90;;;;;;5109606;28;20055;-66
2021/12/26 07:06:39;;;;;;;7.53;2.35;;;-6.90;99.90;;;;;;5110157;28;20043;-66
2021/12/26 07:09:05;;;;;;;5.63;2.25;;;-6.90;99.90;;;;;;5110922;28;20119;-66
2021/12/26 07:11:30;;;;;;;3.40;1.40;;;-6.90;99.90;;;;;;5081462;28;20090;-66
2021/12/26 07:13:56;;;;;;;4.30;1.92;;;-6.90;99.90;;;;;;5100076;28;20045;-67
2021/12/26 07:16:23;;;;;;;2.17;1.48;;;-6.90;99.90;;;;;;5100241;28;20056;-66
2021/12/26 07:18:50;;;;;;;3.72;1.73;;;-6.90;99.90;;;;;;5090164;28;20064;-66
2021/12/26 07:21:19;;;;;;;2.97;1.63;;;-6.90;99.90;;;;;;5089830;28;20479;-67
2021/12/26 07:23:45;;;;;;;3.72;1.80;;;-6.90;99.90;;;;;;5097857;28;20482;-66
2021/12/26 07:26:10;;;;;;;3.85;1.63;;;-6.90;99.90;;;;;;5109767;28;20051;-66
2021/12/26 07:28:36;;;;;;;2.80;1.83;;;-6.90;99.90;;;;;;5108284;28;20833;-66
2021/12/26 07:31:02;;;;;;;5.32;2.85;;;-6.90;99.90;;;;;;5110796;28;20047;-66
2021/12/26 07:33:28;;;;;;;3.75;1.80;;;-6.90;99.90;;;;;;5107483;28;20393;-66
2021/12/26 07:35:54;;;;;;;2.42;1.83;;;-6.90;99.90;;;;;;5094262;28;20040;-66
2021/12/26 07:38:19;;;;;;;3.20;1.65;;;-7.00;99.90;;;;;;5100594;28;20075;-66
2021/12/26 07:40:48;;;;;;;3.30;2.17;;;-7.00;99.90;;;;;;5089424;28;20040;-66
2021/12/26 07:43:14;;;;;;;1.83;1.63;;;-7.00;99.90;;;;;;5107486;28;20032;-66
2021/12/26 07:45:40;;;;;;;5.20;2.67;;;-7.00;99.90;;;;;;5108254;28;20040;-66
2021/12/26 07:48:06;;;;;;;3.38;1.85;;;-7.00;99.90;;;;;;5077081;28;20053;-66
2021/12/26 07:50:32;;;;;;;3.47;2.03;;;-7.00;99.90;;;;;;5108982;28;20042;-67
2021/12/26 07:53:04;;;;;;;4.03;1.60;;;-7.00;99.90;;;;;;5090216;28;20405;-66
2021/12/26 07:55:30;;;;;;;;;;;-7.00;99.90;;;;;;5102977;28;20043;-66
2021/12/26 07:57:55;;;;;;;5.35;2.53;;;-7.00;99.90;;;;;;5107752;28;20007;-66
2021/12/26 08:00:21;;;;;;;6.15;2.10;;;-6.90;99.90;;;;;;5112636;28;20048;-66
2021/12/26 08:02:47;;;;;;;5.32;1.80;;;-6.90;99.90;;;;;;5103256;28;20055;-66
2021/12/26 08:05:14;;;;;;;2.55;1.80;;;-6.90;99.90;;;;;;5102332;28;20052;-66
2021/12/26 08:07:40;;;;;;;2.65;1.63;;;-6.90;99.90;;;;;;5099754;28;20051;-66
2021/12/26 08:10:07;;;;;;;3.38;1.83;;;-6.90;99.90;;;;;;5092831;28;20048;-67
2021/12/26 08:12:32;;;;;;;3.15;1.85;;;-6.80;99.90;;;;;;5095256;28;20383;-67
2021/12/26 08:15:01;;;;;;;4.20;2.30;;;-6.80;99.90;;;;;;5113966;28;20062;-66
2021/12/26 08:17:27;;;;;;;6.97;2.55;;;-6.80;99.90;;;;;;5112878;28;20089;-66
2021/12/26 08:19:53;;;;;;;3.45;2.00;;;-6.70;99.90;;;;;;5097648;28;20059;-66
2021/12/26 08:22:18;;;;;;;4.82;2.35;;;-6.70;99.90;;;;;;5092868;28;20051;-66
2021/12/26 08:24:44;;;;;;;3.22;2.30;;;-6.70;99.90;;;;;;5105860;28;20036;-66
2021/12/26 08:27:09;;;;;;;3.70;2.30;;;-6.70;99.90;;;;;;5102209;28;20040;-67
2021/12/26 08:29:35;;;;;;;2.47;2.10;;;-6.60;99.90;;;;;;5103686;28;20055;-66
2021/12/26 08:32:01;;;;;;;4.00;2.30;;;-6.60;99.90;;;;;;5091619;28;20450;-66
2021/12/26 08:34:27;;;;;;;7.13;3.08;;;-6.50;99.90;;;;;;5087215;28;20443;-66
2021/12/26 08:37:00;;;;;;;5.53;2.70;;;-6.40;99.90;;;;;;5092826;28;20153;-66
2021/12/26 08:39:27;;;;;;;4.57;2.33;;;-6.40;99.90;;;;;;5113324;28;20120;-66
2021/12/26 08:41:53;;;;;;;3.45;2.30;;;-6.30;99.90;;;;;;5111775;28;20047;-66
2021/12/26 08:44:19;;;;;;;4.53;2.22;;;-6.20;99.90;;;;;;5112786;28;20071;-66
2021/12/26 08:46:46;;;;;;;3.72;2.42;;;-6.10;99.90;;;;;;5100267;28;20128;-67
2021/12/26 08:49:12;;;;;;;4.03;2.80;;;-6.10;99.90;;;;;;5100552;28;20044;-66
2021/12/26 08:51:37;;;;;;;5.07;3.03;;;-6.00;99.90;;;;;;5098387;28;20047;-66
2021/12/26 08:54:04;;;;;;;3.30;2.70;;;-6.00;99.90;;;;;;5102449;28;20048;-66
2021/12/26 08:56:30;;;;;;;4.57;2.50;;;-5.90;99.90;;;;;;5092184;28;20043;-66
2021/12/26 08:58:55;;;;;;;3.47;2.10;;;-5.90;99.90;;;;;;5095762;28;20634;-66
2021/12/26 09:01:21;;;;;;;3.97;2.85;;;-5.80;99.90;;;;;;5101987;28;20052;-66
2021/12/26 09:03:47;;;;;;;3.55;2.65;;;-5.70;99.90;;;;;;5090174;28;20530;-66
2021/12/26 09:06:12;;;;;;;5.03;3.00;;;-5.70;99.90;;;;;;5096392;28;20043;-66
2021/12/26 09:08:38;;;;;;;6.40;3.70;;;-5.60;99.90;;;;;;5090516;28;20498;-68
2021/12/26 09:11:03;;;;;;;3.80;2.80;;;-5.60;99.90;;;;;;5078645;28;20087;-70
2021/12/26 09:13:29;;;;;;;7.03;3.15;;;-5.50;99.90;;;;;;5106505;28;20040;-73
2021/12/26 09:15:55;;;;;;;4.60;3.25;;;-5.40;99.90;;;;;;5101302;28;20050;-72
2021/12/26 09:18:20;;;;;;;4.20;2.92;;;-5.40;99.90;;;;;;5099997;28;20388;-66
2021/12/26 09:20:46;;;;;;;4.43;2.53;;;-5.30;99.90;;;;;;5098879;28;20040;-66
2021/12/26 09:23:12;;;;;;;3.83;2.60;;;-5.30;99.90;;;;;;5090297;28;20131;-65
2021/12/26 09:25:37;;;;;;;3.78;2.75;;;-5.20;99.90;;;;;;5087499;28;20498;-66
2021/12/26 09:28:03;;;;;;;3.72;2.47;;;-5.10;99.90;;;;;;5089526;28;20050;-66
2021/12/26 09:30:29;;;;;;;4.60;3.42;;;-5.10;99.90;;;;;;5088178;28;20055;-64
2021/12/26 09:32:55;;;;;;;5.95;3.28;;;-5.00;99.90;;;;;;5090457;28;20056;-66
2021/12/26 09:35:20;;;;;;;4.85;2.95;;;-4.90;99.90;;;;;;5090714;28;20040;-66
2021/12/26 09:37:46;;;;;;;4.38;2.72;;;-4.80;99.90;;;;;;5089914;28;20134;-66
2021/12/26 09:40:14;;;;;;;2.78;2.35;;;-4.80;99.90;;;;;;5090185;28;20044;-65
2021/12/26 09:42:41;;;;;;;3.92;3.53;;;-4.70;99.90;;;;;;5089295;28;20055;-65
2021/12/26 09:45:09;;;;;;;6.88;3.38;;;-4.70;99.90;;;;;;5091459;28;20139;-65
2021/12/26 09:47:39;;;;;;;5.05;3.05;;;-4.60;99.90;;;;;;5090486;28;20052;-65
2021/12/26 09:50:06;;;;;;;4.20;2.65;;;-4.50;99.90;;;;;;5091104;28;20411;-65
2021/12/26 09:52:32;;;;;;;4.68;2.63;;;-4.50;99.90;;;;;;5089716;28;20048;-65
2021/12/26 09:54:58;;;;;;;5.85;2.67;;;-4.40;99.90;;;;;;5090669;28;20047;-65
2021/12/26 09:57:24;;;;;;;5.85;3.25;;;-4.30;99.90;;;;;;5090769;28;20055;-65
2021/12/26 09:59:50;;;;;;;6.03;3.65;;;-4.20;99.90;;;;;;5089098;28;20398;-66
2021/12/26 10:02:18;;;;;;;4.32;2.70;;;-4.20;99.90;;;;;;5089805;28;20048;-65
2021/12/26 10:04:45;;;;;;;3.35;2.53;;;-4.10;99.90;;;;;;5087353;28;20044;-66
2021/12/26 10:07:15;;;;;;;3.67;2.67;;;-4.00;99.90;;;;;;5089755;28;20040;-65
2021/12/26 10:09:47;;;;;;;4.93;3.03;;;-3.90;99.90;;;;;;5089739;28;20047;-65
2021/12/26 10:12:14;;;;;;;4.95;2.55;;;-3.90;99.90;;;;;;5088498;28;20429;-65
2021/12/26 10:14:43;;;;;;;3.53;2.75;;;-3.90;99.90;;;;;;5088474;28;20051;-65
2021/12/26 10:17:12;;;;;;;3.55;2.40;;;-3.80;99.90;;;;;;5101398;28;20058;-66
2021/12/26 10:19:44;;;;;;;3.45;2.70;;;-3.70;99.90;;;;;;5109039;28;20183;-65
2021/12/26 10:22:13;;;;;;;4.47;2.60;;;-3.70;99.90;;;;;;5089771;28;20044;-66
2021/12/26 10:24:44;;;;;;;4.47;2.35;;;-3.60;99.90;;;;;;5090215;28;20409;-65
2021/12/26 10:27:14;;;;;;;4.23;2.97;;;-3.50;99.90;;;;;;5089727;28;20363;-65
2021/12/26 10:29:49;;;;;;;4.22;2.95;;;-3.50;99.90;;;;;;5087918;28;20062;-65
2021/12/26 10:32:23;;;;;;;3.83;2.47;;;-3.40;99.90;;;;;;5109050;28;20047;-66
2021/12/26 10:35:16;;;;;;;5.30;2.78;;;-3.40;99.90;;;;;;5108931;28;20109;-65
2021/12/26 10:37:49;;;;;;;2.85;2.30;;;-3.30;99.90;;;;;;5109106;28;20048;-65
2021/12/26 10:40:21;;;;;;;3.35;2.38;;;-3.30;99.90;;;;;;5110534;28;20087;-66
2021/12/26 10:42:51;;;;;;;5.68;2.78;;;-3.10;99.90;;;;;;5109735;28;20051;-66
2021/12/26 10:45:20;;;;;;;3.70;2.95;;;-3.10;99.90;;;;;;5095277;28;20051;-66
2021/12/26 10:47:50;;;;;;;6.10;3.20;;;-3.10;99.90;;;;;;5087795;28;20118;-65
2021/12/26 10:50:19;;;;;;;4.90;3.33;;;-3.00;99.90;;;;;;5088108;28;20080;-66
2021/12/26 10:53:04;;;;;;;4.50;2.92;;;-2.90;99.90;;;;;;5086129;28;20044;-65
2021/12/26 10:55:47;;;;;;;4.38;2.42;;;-2.80;99.90;;;;;;5088327;28;20510;-66
2021/12/26 10:58:17;;;;;;;6.07;3.00;;;-2.80;99.90;;;;;;5085850;28;20109;-65
2021/12/26 11:00:46;;;;;;;5.13;2.42;;;-2.70;99.90;;;;;;5080188;28;20033;-65
2021/12/26 11:03:18;;;;;;;3.35;2.35;;;-2.60;99.90;;;;;;5085797;28;20048;-66
2021/12/26 11:05:46;;;;;;;5.55;3.42;;;-2.60;99.90;;;;;;5084799;28;20032;-65
2021/12/26 11:08:14;;;;;;;4.10;2.38;;;-2.50;99.90;;;;;;5080883;28;20069;-65
2021/12/26 11:10:51;;;;;;;4.40;2.90;;;-2.20;99.90;;;;;;5086069;28;20130;-66
2021/12/26 11:13:17;;;;;;;3.15;2.42;;;-2.40;99.90;;;;;;5086368;28;20060;-66
2021/12/26 11:15:45;;;;;;;3.25;2.22;;;-2.40;99.90;;;;;;5086625;28;20133;-66
2021/12/26 11:18:13;;;;;;;6.25;3.40;;;-2.40;99.90;;;;;;5084877;28;20063;-66
2021/12/26 11:20:45;;;;;;;4.00;2.47;;;-2.30;99.90;;;;;;5087204;28;20040;-66
2021/12/26 11:23:17;;;;;;;6.35;2.25;;;-2.30;99.90;;;;;;5083212;28;20064;-66
2021/12/26 11:25:54;;;;;;;3.00;2.40;;;-2.20;99.90;;;;;;5084706;28;20044;-66
2021/12/26 11:28:26;;;;;;;3.53;2.55;;;-2.20;99.90;;;;;;5086863;28;20083;-66
2021/12/26 11:30:58;;;;;;;3.92;2.63;;;-2.20;99.90;;;;;;5091530;28;20044;-66
2021/12/26 11:33:24;;;;;;;4.35;2.92;;;-2.20;99.90;;;;;;5090065;28;20573;-66
2021/12/26 11:35:53;;;;;;;5.57;3.47;;;-2.20;99.90;;;;;;5092301;28;20146;-65
2021/12/26 11:38:22;;;;;;;6.80;3.13;;;-2.20;99.90;;;;;;5106693;28;20048;-66
2021/12/26 11:40:54;;;;;;;5.15;3.30;;;-2.10;99.90;;;;;;5092888;28;20040;-66
2021/12/26 11:43:38;;;;;;;4.88;3.47;;;-2.10;99.90;;;;;;5100731;28;20101;-66
2021/12/26 11:46:20;;;;;;;4.10;3.28;;;-2.00;99.90;;;;;;5114248;28;20457;-66
2021/12/26 11:48:59;;;;;;;7.07;2.95;;;-2.00;99.90;;;;;;5105757;28;20479;-66
2021/12/26 11:51:37;;;;;;;3.63;3.08;;;-1.90;99.90;;;;;;5091199;28;20484;-66
2021/12/26 11:54:12;;;;;;;3.35;2.42;;;-1.90;99.90;;;;;;5088778;28;20047;-66
2021/12/26 11:57:19;;;;;;;3.13;2.80;;;-1.80;99.90;;;;;;5108017;28;20048;-66
2021/12/26 11:59:53;;;;;;;3.92;2.28;;;-1.70;99.90;;;;;;5089233;28;20074;-66
2021/12/26 12:02:42;;;;;;;3.47;2.45;;;-1.70;99.90;;;;;;5088268;28;20055;-66
2021/12/26 12:05:09;;;;;;;2.30;2.10;;;-1.70;99.90;;;;;;5085669;28;20052;-65
2021/12/26 12:07:51;;;;;;;2.90;2.65;;;-1.70;99.90;;;;;;5099930;28;20047;-66
2021/12/26 12:10:40;;;;;;;5.10;2.50;;;-1.60;99.90;;;;;;5080092;28;20075;-66
2021/12/26 12:13:07;;;;;;;8.30;2.78;;;-1.60;99.60;;;;;;5092564;28;20063;-66
2021/12/26 12:15:47;;;;;;;3.80;2.92;;;-1.50;99.90;;;;;;5090563;28;20044;-66
2021/12/26 12:18:23;;;;;;;3.22;2.40;;;-1.50;99.90;;;;;;5089999;28;20067;-66
2021/12/26 12:21:26;;;;;;;2.55;2.28;;;-1.50;99.90;;;;;;5087776;28;20498;-66
2021/12/26 12:24:01;;;;;;;;;;;-1.40;99.90;;;;;;5087047;28;20478;-65
2021/12/26 12:26:54;;;;;;;4.90;3.08;;;-1.40;99.90;;;;;;5092615;28;19981;-66
2021/12/26 12:29:29;;;;;;;3.35;2.47;;;-1.40;99.90;;;;;;5091260;28;20487;-66
2021/12/26 12:32:07;;;;;;;6.00;3.03;;;-1.40;99.90;;;;;;5090389;28;20036;-66
2021/12/26 12:34:46;;;;;;;3.65;2.78;;;-1.30;99.90;;;;;;5088343;28;20055;-66
2021/12/26 12:37:26;;;;;;;3.22;2.33;;;-1.20;99.90;;;;;;5106954;28;20130;-66
2021/12/26 12:40:08;;;;;;;3.95;2.92;;;-1.20;99.90;;;;;;5099679;28;20180;-68
2021/12/26 12:42:35;;;;;;;3.95;2.22;;;-1.20;99.90;;;;;;5098646;28;20100;-67
2021/12/26 12:45:01;;;;;;;4.38;2.47;;;-1.20;99.90;;;;;;5093154;28;20125;-68
2021/12/26 12:47:27;;;;;;;3.55;2.72;;;-1.10;99.90;;;;;;5092664;28;20063;-67
2021/12/26 12:49:56;;;;;;;3.92;2.65;;;-1.00;99.90;;;;;;5078895;28;20047;-68
2021/12/26 12:52:47;;;;;;;3.78;2.50;;;-1.10;99.90;;;;;;5093733;28;20059;-67